sensor_id;sensor_type;location;lat;lon;timestamp;P1;durP1;ratioP1;P2;durP2;ratioP2
17818;SDS011;9034;50.284;19.310;2022-12-08T00:00:44;18.95;;;11.80;;
17818;SDS011;9034;50.284;19.310;2022-12-08T00:01:47;16.45;;;11.82;;
17818;SDS011;9034;50.284;19.310;2022-12-08T00:02:51;20.23;;;12.88;;
17818;SDS011;9034;50.284;19.310;2022-12-08T00:03:54;18.05;;;11.82;;
17818;SDS011;9034;50.284;19.310;2022-12-08T00:04:58;17.58;;;11.93;;
17818;SDS011;9034;50.284;19.310;2022-12-08T00:06:23;16.52;;;11.05;;
17818;SDS011;9034;50.284;19.310;2022-12-08T00:07:45;17.45;;;11.27;;
17818;SDS011;9034;50.284;19.310;2022-12-08T00:09:08;17.08;;;11.45;;
17818;SDS011;9034;50.284;19.310;2022-12-08T00:10:24;16.40;;;11.10;;
17818;SDS011;9034;50.284;19.310;2022-12-08T00:11:47;18.25;;;11.63;;
17818;SDS011;9034;50.284;19.310;2022-12-08T00:12:52;19.63;;;12.52;;
17818;SDS011;9034;50.284;19.310;2022-12-08T00:13:55;18.42;;;12.32;;
17818;SDS011;9034;50.284;19.310;2022-12-08T00:14:59;17.88;;;12.93;;
17818;SDS011;9034;50.284;19.310;2022-12-08T00:16:04;18.55;;;13.10;;
17818;SDS011;9034;50.284;19.310;2022-12-08T00:17:07;16.60;;;12.23;;
17818;SDS011;9034;50.284;19.310;2022-12-08T00:18:12;18.00;;;13.27;;
17818;SDS011;9034;50.284;19.310;2022-12-08T00:19:15;18.55;;;11.93;;
17818;SDS011;9034;50.284;19.310;2022-12-08T00:20:18;16.25;;;13.02;;
17818;SDS011;9034;50.284;19.310;2022-12-08T00:21:21;18.13;;;12.55;;
17818;SDS011;9034;50.284;19.310;2022-12-08T00:22:25;16.33;;;11.55;;
17818;SDS011;9034;50.284;19.310;2022-12-08T00:23:30;18.52;;;13.52;;
17818;SDS011;9034;50.284;19.310;2022-12-08T00:24:34;17.58;;;12.98;;
17818;SDS011;9034;50.284;19.310;2022-12-08T00:25:39;18.67;;;12.40;;
17818;SDS011;9034;50.284;19.310;2022-12-08T00:26:43;19.73;;;11.98;;
17818;SDS011;9034;50.284;19.310;2022-12-08T00:27:46;18.02;;;11.50;;
17818;SDS011;9034;50.284;19.310;2022-12-08T00:28:50;18.75;;;11.57;;
17818;SDS011;9034;50.284;19.310;2022-12-08T00:29:57;16.25;;;12.43;;
17818;SDS011;9034;50.284;19.310;2022-12-08T00:31:06;17.83;;;12.15;;
17818;SDS011;9034;50.284;19.310;2022-12-08T00:32:10;16.15;;;12.02;;
17818;SDS011;9034;50.284;19.310;2022-12-08T00:33:14;16.42;;;11.82;;
17818;SDS011;9034;50.284;19.310;2022-12-08T00:34:17;20.45;;;12.40;;
17818;SDS011;9034;50.284;19.310;2022-12-08T00:35:20;17.52;;;12.88;;
17818;SDS011;9034;50.284;19.310;2022-12-08T00:36:23;18.25;;;12.80;;
17818;SDS011;9034;50.284;19.310;2022-12-08T00:37:27;17.67;;;12.18;;
17818;SDS011;9034;50.284;19.310;2022-12-08T00:38:30;17.73;;;11.95;;
17818;SDS011;9034;50.284;19.310;2022-12-08T00:39:33;18.23;;;11.27;;
17818;SDS011;9034;50.284;19.310;2022-12-08T00:40:37;19.48;;;11.90;;
17818;SDS011;9034;50.284;19.310;2022-12-08T00:41:45;19.05;;;13.00;;
17818;SDS011;9034;50.284;19.310;2022-12-08T00:43:06;16.55;;;11.43;;
17818;SDS011;9034;50.284;19.310;2022-12-08T00:44:12;19.35;;;12.00;;
17818;SDS011;9034;50.284;19.310;2022-12-08T00:45:15;17.00;;;11.73;;
17818;SDS011;9034;50.284;19.310;2022-12-08T00:46:19;16.40;;;10.98;;
17818;SDS011;9034;50.284;19.310;2022-12-08T00:47:22;17.48;;;12.25;;
17818;SDS011;9034;50.284;19.310;2022-12-08T00:48:26;16.23;;;11.95;;
17818;SDS011;9034;50.284;19.310;2022-12-08T00:49:28;17.52;;;12.18;;
17818;SDS011;9034;50.284;19.310;2022-12-08T00:50:32;15.80;;;11.80;;
17818;SDS011;9034;50.284;19.310;2022-12-08T00:51:35;16.13;;;11.48;;
17818;SDS011;9034;50.284;19.310;2022-12-08T00:52:39;16.50;;;11.57;;
17818;SDS011;9034;50.284;19.310;2022-12-08T00:53:41;16.83;;;11.82;;
17818;SDS011;9034;50.284;19.310;2022-12-08T00:54:45;16.58;;;11.98;;
17818;SDS011;9034;50.284;19.310;2022-12-08T00:55:48;20.15;;;12.43;;
17818;SDS011;9034;50.284;19.310;2022-12-08T00:56:51;17.50;;;12.57;;
17818;SDS011;9034;50.284;19.310;2022-12-08T00:57:54;19.05;;;12.48;;
17818;SDS011;9034;50.284;19.310;2022-12-08T00:58:58;17.38;;;12.00;;
17818;SDS011;9034;50.284;19.310;2022-12-08T01:00:02;19.45;;;13.25;;
17818;SDS011;9034;50.284;19.310;2022-12-08T01:01:08;15.48;;;12.25;;
17818;SDS011;9034;50.284;19.310;2022-12-08T01:02:11;16.30;;;11.82;;
17818;SDS011;9034;50.284;19.310;2022-12-08T01:03:15;16.25;;;12.13;;
17818;SDS011;9034;50.284;19.310;2022-12-08T01:04:18;16.42;;;12.13;;
17818;SDS011;9034;50.284;19.310;2022-12-08T01:05:22;18.13;;;12.70;;
17818;SDS011;9034;50.284;19.310;2022-12-08T01:06:25;17.75;;;12.75;;
17818;SDS011;9034;50.284;19.310;2022-12-08T01:07:28;16.27;;;12.23;;
17818;SDS011;9034;50.284;19.310;2022-12-08T01:08:31;16.85;;;11.73;;
17818;SDS011;9034;50.284;19.310;2022-12-08T01:09:35;18.02;;;12.48;;
17818;SDS011;9034;50.284;19.310;2022-12-08T01:10:38;19.27;;;12.77;;
17818;SDS011;9034;50.284;19.310;2022-12-08T01:11:42;16.42;;;12.35;;
17818;SDS011;9034;50.284;19.310;2022-12-08T01:12:45;14.50;;;10.18;;
17818;SDS011;9034;50.284;19.310;2022-12-08T01:13:49;21.30;;;12.50;;
17818;SDS011;9034;50.284;19.310;2022-12-08T01:14:51;16.33;;;12.05;;
17818;SDS011;9034;50.284;19.310;2022-12-08T01:16:04;17.08;;;11.80;;
17818;SDS011;9034;50.284;19.310;2022-12-08T01:17:07;15.20;;;10.85;;
17818;SDS011;9034;50.284;19.310;2022-12-08T01:18:11;15.20;;;11.93;;
17818;SDS011;9034;50.284;19.310;2022-12-08T01:19:14;15.88;;;11.18;;
17818;SDS011;9034;50.284;19.310;2022-12-08T01:20:18;15.55;;;11.70;;
17818;SDS011;9034;50.284;19.310;2022-12-08T01:21:21;16.33;;;11.45;;
17818;SDS011;9034;50.284;19.310;2022-12-08T01:22:24;15.95;;;12.45;;
17818;SDS011;9034;50.284;19.310;2022-12-08T01:23:28;16.17;;;11.82;;
17818;SDS011;9034;50.284;19.310;2022-12-08T01:24:31;18.58;;;12.10;;
17818;SDS011;9034;50.284;19.310;2022-12-08T01:25:34;14.85;;;11.48;;
17818;SDS011;9034;50.284;19.310;2022-12-08T01:26:37;16.35;;;11.80;;
17818;SDS011;9034;50.284;19.310;2022-12-08T01:27:41;16.67;;;11.93;;
17818;SDS011;9034;50.284;19.310;2022-12-08T01:28:44;19.30;;;12.77;;
17818;SDS011;9034;50.284;19.310;2022-12-08T01:29:49;17.75;;;12.13;;
17818;SDS011;9034;50.284;19.310;2022-12-08T01:30:52;18.80;;;13.18;;
17818;SDS011;9034;50.284;19.310;2022-12-08T01:31:56;15.77;;;11.77;;
17818;SDS011;9034;50.284;19.310;2022-12-08T01:33:00;18.80;;;11.93;;
17818;SDS011;9034;50.284;19.310;2022-12-08T01:34:03;15.75;;;11.65;;
17818;SDS011;9034;50.284;19.310;2022-12-08T01:35:07;18.27;;;12.55;;
17818;SDS011;9034;50.284;19.310;2022-12-08T01:36:16;16.27;;;12.13;;
17818;SDS011;9034;50.284;19.310;2022-12-08T01:37:22;18.52;;;12.20;;
17818;SDS011;9034;50.284;19.310;2022-12-08T01:38:26;16.92;;;12.23;;
17818;SDS011;9034;50.284;19.310;2022-12-08T01:39:29;17.83;;;11.77;;
17818;SDS011;9034;50.284;19.310;2022-12-08T01:40:32;18.25;;;11.88;;
17818;SDS011;9034;50.284;19.310;2022-12-08T01:41:36;15.60;;;12.15;;
17818;SDS011;9034;50.284;19.310;2022-12-08T01:42:40;16.08;;;11.40;;
17818;SDS011;9034;50.284;19.310;2022-12-08T01:43:45;15.02;;;11.45;;
17818;SDS011;9034;50.284;19.310;2022-12-08T01:44:57;16.90;;;11.55;;
17818;SDS011;9034;50.284;19.310;2022-12-08T01:46:02;14.00;;;11.15;;
17818;SDS011;9034;50.284;19.310;2022-12-08T01:47:06;17.88;;;11.55;;
17818;SDS011;9034;50.284;19.310;2022-12-08T01:48:11;14.10;;;11.63;;
17818;SDS011;9034;50.284;19.310;2022-12-08T01:49:19;14.70;;;11.80;;
17818;SDS011;9034;50.284;19.310;2022-12-08T01:50:24;16.13;;;12.25;;
17818;SDS011;9034;50.284;19.310;2022-12-08T01:51:30;14.40;;;10.95;;
17818;SDS011;9034;50.284;19.310;2022-12-08T01:52:36;13.98;;;11.18;;
17818;SDS011;9034;50.284;19.310;2022-12-08T01:53:42;16.38;;;11.52;;
17818;SDS011;9034;50.284;19.310;2022-12-08T01:54:46;15.60;;;11.80;;
17818;SDS011;9034;50.284;19.310;2022-12-08T01:55:53;15.90;;;11.45;;
17818;SDS011;9034;50.284;19.310;2022-12-08T01:56:57;15.93;;;11.27;;
17818;SDS011;9034;50.284;19.310;2022-12-08T01:58:05;16.23;;;11.40;;
17818;SDS011;9034;50.284;19.310;2022-12-08T01:59:12;15.75;;;11.38;;
17818;SDS011;9034;50.284;19.310;2022-12-08T02:00:17;17.15;;;10.77;;
17818;SDS011;9034;50.284;19.310;2022-12-08T02:01:21;17.30;;;12.00;;
17818;SDS011;9034;50.284;19.310;2022-12-08T02:02:26;15.20;;;11.32;;
17818;SDS011;9034;50.284;19.310;2022-12-08T02:03:33;17.65;;;11.98;;
17818;SDS011;9034;50.284;19.310;2022-12-08T02:04:41;17.80;;;11.23;;
17818;SDS011;9034;50.284;19.310;2022-12-08T02:05:43;15.02;;;11.27;;
17818;SDS011;9034;50.284;19.310;2022-12-08T02:06:48;15.27;;;11.18;;
17818;SDS011;9034;50.284;19.310;2022-12-08T02:07:52;14.88;;;11.30;;
17818;SDS011;9034;50.284;19.310;2022-12-08T02:08:57;13.60;;;9.88;;
17818;SDS011;9034;50.284;19.310;2022-12-08T02:10:01;15.68;;;10.13;;
17818;SDS011;9034;50.284;19.310;2022-12-08T02:11:07;14.45;;;10.88;;
17818;SDS011;9034;50.284;19.310;2022-12-08T02:12:10;15.05;;;10.88;;
17818;SDS011;9034;50.284;19.310;2022-12-08T02:13:15;15.55;;;11.57;;
17818;SDS011;9034;50.284;19.310;2022-12-08T02:14:18;14.25;;;10.90;;
17818;SDS011;9034;50.284;19.310;2022-12-08T02:15:23;16.42;;;11.40;;
17818;SDS011;9034;50.284;19.310;2022-12-08T02:16:34;12.98;;;10.48;;
17818;SDS011;9034;50.284;19.310;2022-12-08T02:17:48;14.73;;;10.40;;
17818;SDS011;9034;50.284;19.310;2022-12-08T02:18:59;12.60;;;10.13;;
17818;SDS011;9034;50.284;19.310;2022-12-08T02:20:37;16.17;;;9.95;;
17818;SDS011;9034;50.284;19.310;2022-12-08T02:21:48;16.80;;;9.98;;
17818;SDS011;9034;50.284;19.310;2022-12-08T02:22:57;13.52;;;10.82;;
17818;SDS011;9034;50.284;19.310;2022-12-08T02:24:06;15.50;;;11.57;;
17818;SDS011;9034;50.284;19.310;2022-12-08T02:25:14;13.23;;;10.88;;
17818;SDS011;9034;50.284;19.310;2022-12-08T02:28:04;13.63;;;9.32;;
17818;SDS011;9034;50.284;19.310;2022-12-08T02:29:22;15.93;;;10.57;;
17818;SDS011;9034;50.284;19.310;2022-12-08T02:30:52;13.65;;;10.57;;
17818;SDS011;9034;50.284;19.310;2022-12-08T02:32:09;15.27;;;10.40;;
17818;SDS011;9034;50.284;19.310;2022-12-08T02:34:57;14.48;;;9.63;;
17818;SDS011;9034;50.284;19.310;2022-12-08T02:36:05;14.75;;;10.57;;
17818;SDS011;9034;50.284;19.310;2022-12-08T02:37:10;14.65;;;10.55;;
17818;SDS011;9034;50.284;19.310;2022-12-08T02:38:19;14.70;;;11.15;;
17818;SDS011;9034;50.284;19.310;2022-12-08T02:39:32;17.45;;;11.05;;
17818;SDS011;9034;50.284;19.310;2022-12-08T02:40:40;13.65;;;10.75;;
17818;SDS011;9034;50.284;19.310;2022-12-08T02:41:48;14.95;;;11.02;;
17818;SDS011;9034;50.284;19.310;2022-12-08T02:42:55;15.02;;;11.65;;
17818;SDS011;9034;50.284;19.310;2022-12-08T02:44:05;16.67;;;11.50;;
17818;SDS011;9034;50.284;19.310;2022-12-08T02:45:12;14.93;;;11.38;;
17818;SDS011;9034;50.284;19.310;2022-12-08T02:46:26;17.35;;;11.20;;
17818;SDS011;9034;50.284;19.310;2022-12-08T02:47:32;15.57;;;11.48;;
17818;SDS011;9034;50.284;19.310;2022-12-08T02:48:36;15.13;;;11.13;;
17818;SDS011;9034;50.284;19.310;2022-12-08T02:49:40;15.10;;;11.18;;
17818;SDS011;9034;50.284;19.310;2022-12-08T02:50:45;14.35;;;11.40;;
17818;SDS011;9034;50.284;19.310;2022-12-08T02:51:48;16.50;;;11.70;;
17818;SDS011;9034;50.284;19.310;2022-12-08T02:52:51;15.38;;;11.38;;
17818;SDS011;9034;50.284;19.310;2022-12-08T02:53:54;15.95;;;12.60;;
17818;SDS011;9034;50.284;19.310;2022-12-08T02:54:59;16.55;;;12.68;;
17818;SDS011;9034;50.284;19.310;2022-12-08T02:56:07;18.27;;;11.52;;
17818;SDS011;9034;50.284;19.310;2022-12-08T02:57:20;15.85;;;11.68;;
17818;SDS011;9034;50.284;19.310;2022-12-08T03:00:05;15.40;;;11.68;;
17818;SDS011;9034;50.284;19.310;2022-12-08T03:01:13;17.13;;;10.68;;
17818;SDS011;9034;50.284;19.310;2022-12-08T03:02:30;15.90;;;11.13;;
17818;SDS011;9034;50.284;19.310;2022-12-08T03:03:44;16.45;;;11.35;;
17818;SDS011;9034;50.284;19.310;2022-12-08T03:04:51;16.98;;;11.57;;
17818;SDS011;9034;50.284;19.310;2022-12-08T03:05:59;16.42;;;11.90;;
17818;SDS011;9034;50.284;19.310;2022-12-08T03:07:10;16.17;;;11.60;;
17818;SDS011;9034;50.284;19.310;2022-12-08T03:08:19;17.48;;;11.88;;
17818;SDS011;9034;50.284;19.310;2022-12-08T03:09:28;15.23;;;11.27;;
17818;SDS011;9034;50.284;19.310;2022-12-08T03:10:36;16.92;;;11.13;;
17818;SDS011;9034;50.284;19.310;2022-12-08T03:11:43;15.48;;;11.25;;
17818;SDS011;9034;50.284;19.310;2022-12-08T03:12:50;15.75;;;11.18;;
17818;SDS011;9034;50.284;19.310;2022-12-08T03:13:58;15.98;;;11.27;;
17818;SDS011;9034;50.284;19.310;2022-12-08T03:15:03;15.77;;;11.35;;
17818;SDS011;9034;50.284;19.310;2022-12-08T03:16:10;13.60;;;10.32;;
17818;SDS011;9034;50.284;19.310;2022-12-08T03:17:16;15.23;;;11.18;;
17818;SDS011;9034;50.284;19.310;2022-12-08T03:18:23;15.40;;;11.30;;
17818;SDS011;9034;50.284;19.310;2022-12-08T03:19:30;16.33;;;11.57;;
17818;SDS011;9034;50.284;19.310;2022-12-08T03:20:36;16.52;;;11.23;;
17818;SDS011;9034;50.284;19.310;2022-12-08T03:21:41;15.07;;;10.93;;
17818;SDS011;9034;50.284;19.310;2022-12-08T03:22:46;14.45;;;10.52;;
17818;SDS011;9034;50.284;19.310;2022-12-08T03:23:51;16.13;;;11.32;;
17818;SDS011;9034;50.284;19.310;2022-12-08T03:24:56;15.50;;;10.95;;
17818;SDS011;9034;50.284;19.310;2022-12-08T03:26:03;17.95;;;11.95;;
17818;SDS011;9034;50.284;19.310;2022-12-08T03:27:09;17.05;;;10.63;;
17818;SDS011;9034;50.284;19.310;2022-12-08T03:28:14;16.33;;;11.63;;
17818;SDS011;9034;50.284;19.310;2022-12-08T03:29:17;15.43;;;11.80;;
17818;SDS011;9034;50.284;19.310;2022-12-08T03:30:20;15.77;;;11.48;;
17818;SDS011;9034;50.284;19.310;2022-12-08T03:31:24;16.08;;;11.45;;
17818;SDS011;9034;50.284;19.310;2022-12-08T03:32:32;16.02;;;11.40;;
17818;SDS011;9034;50.284;19.310;2022-12-08T03:33:39;18.25;;;11.40;;
17818;SDS011;9034;50.284;19.310;2022-12-08T03:34:43;16.38;;;11.65;;
17818;SDS011;9034;50.284;19.310;2022-12-08T03:35:49;16.52;;;11.30;;
17818;SDS011;9034;50.284;19.310;2022-12-08T03:36:53;17.65;;;12.00;;
17818;SDS011;9034;50.284;19.310;2022-12-08T03:38:00;16.60;;;11.35;;
17818;SDS011;9034;50.284;19.310;2022-12-08T03:39:04;15.98;;;10.73;;
17818;SDS011;9034;50.284;19.310;2022-12-08T03:40:11;16.77;;;11.82;;
17818;SDS011;9034;50.284;19.310;2022-12-08T03:41:15;16.13;;;11.45;;
17818;SDS011;9034;50.284;19.310;2022-12-08T03:42:22;18.30;;;11.70;;
17818;SDS011;9034;50.284;19.310;2022-12-08T03:43:24;16.95;;;12.35;;
17818;SDS011;9034;50.284;19.310;2022-12-08T03:44:28;18.92;;;12.35;;
17818;SDS011;9034;50.284;19.310;2022-12-08T03:45:32;15.27;;;11.40;;
17818;SDS011;9034;50.284;19.310;2022-12-08T03:46:35;16.80;;;11.65;;
17818;SDS011;9034;50.284;19.310;2022-12-08T03:47:39;16.23;;;12.77;;
17818;SDS011;9034;50.284;19.310;2022-12-08T03:48:44;17.27;;;11.75;;
17818;SDS011;9034;50.284;19.310;2022-12-08T03:49:48;16.98;;;11.57;;
17818;SDS011;9034;50.284;19.310;2022-12-08T03:50:52;14.55;;;11.23;;
17818;SDS011;9034;50.284;19.310;2022-12-08T03:51:56;15.27;;;12.18;;
17818;SDS011;9034;50.284;19.310;2022-12-08T03:53:01;16.40;;;11.70;;
17818;SDS011;9034;50.284;19.310;2022-12-08T03:54:03;17.67;;;11.88;;
17818;SDS011;9034;50.284;19.310;2022-12-08T03:55:07;15.82;;;11.63;;
17818;SDS011;9034;50.284;19.310;2022-12-08T03:56:15;14.57;;;10.75;;
17818;SDS011;9034;50.284;19.310;2022-12-08T03:57:22;16.27;;;12.23;;
17818;SDS011;9034;50.284;19.310;2022-12-08T03:58:24;16.45;;;12.73;;
17818;SDS011;9034;50.284;19.310;2022-12-08T03:59:33;18.02;;;11.32;;
17818;SDS011;9034;50.284;19.310;2022-12-08T04:00:36;14.63;;;11.00;;
17818;SDS011;9034;50.284;19.310;2022-12-08T04:01:39;16.48;;;11.88;;
17818;SDS011;9034;50.284;19.310;2022-12-08T04:02:42;16.27;;;11.90;;
17818;SDS011;9034;50.284;19.310;2022-12-08T04:03:46;16.05;;;12.13;;
17818;SDS011;9034;50.284;19.310;2022-12-08T04:04:49;16.63;;;11.82;;
17818;SDS011;9034;50.284;19.310;2022-12-08T04:05:54;17.63;;;11.43;;
17818;SDS011;9034;50.284;19.310;2022-12-08T04:06:59;17.30;;;12.32;;
17818;SDS011;9034;50.284;19.310;2022-12-08T04:08:04;16.83;;;11.38;;
17818;SDS011;9034;50.284;19.310;2022-12-08T04:09:07;14.25;;;10.73;;
17818;SDS011;9034;50.284;19.310;2022-12-08T04:10:14;15.65;;;11.95;;
17818;SDS011;9034;50.284;19.310;2022-12-08T04:11:17;16.58;;;11.85;;
17818;SDS011;9034;50.284;19.310;2022-12-08T04:12:21;16.55;;;11.93;;
17818;SDS011;9034;50.284;19.310;2022-12-08T04:13:25;18.83;;;12.60;;
17818;SDS011;9034;50.284;19.310;2022-12-08T04:14:29;17.73;;;13.02;;
17818;SDS011;9034;50.284;19.310;2022-12-08T04:15:32;15.88;;;12.55;;
17818;SDS011;9034;50.284;19.310;2022-12-08T04:16:36;16.40;;;11.73;;
17818;SDS011;9034;50.284;19.310;2022-12-08T04:17:40;18.27;;;11.82;;
17818;SDS011;9034;50.284;19.310;2022-12-08T04:18:43;14.95;;;11.10;;
17818;SDS011;9034;50.284;19.310;2022-12-08T04:19:48;18.55;;;12.98;;
17818;SDS011;9034;50.284;19.310;2022-12-08T04:20:51;15.35;;;12.32;;
17818;SDS011;9034;50.284;19.310;2022-12-08T04:21:55;14.25;;;11.55;;
17818;SDS011;9034;50.284;19.310;2022-12-08T04:23:00;19.40;;;12.05;;
17818;SDS011;9034;50.284;19.310;2022-12-08T04:24:03;18.20;;;11.95;;
17818;SDS011;9034;50.284;19.310;2022-12-08T04:25:08;15.20;;;11.55;;
17818;SDS011;9034;50.284;19.310;2022-12-08T04:26:14;19.33;;;13.10;;
17818;SDS011;9034;50.284;19.310;2022-12-08T04:27:18;16.52;;;12.23;;
17818;SDS011;9034;50.284;19.310;2022-12-08T04:28:21;17.10;;;12.88;;
17818;SDS011;9034;50.284;19.310;2022-12-08T04:29:25;17.33;;;11.75;;
17818;SDS011;9034;50.284;19.310;2022-12-08T04:30:30;19.20;;;13.07;;
17818;SDS011;9034;50.284;19.310;2022-12-08T04:31:32;17.63;;;12.65;;
17818;SDS011;9034;50.284;19.310;2022-12-08T04:32:39;17.23;;;12.50;;
17818;SDS011;9034;50.284;19.310;2022-12-08T04:33:48;17.27;;;12.70;;
17818;SDS011;9034;50.284;19.310;2022-12-08T04:34:51;16.80;;;12.48;;
17818;SDS011;9034;50.284;19.310;2022-12-08T04:35:58;16.63;;;12.55;;
17818;SDS011;9034;50.284;19.310;2022-12-08T04:37:04;16.77;;;12.60;;
17818;SDS011;9034;50.284;19.310;2022-12-08T04:38:09;18.55;;;12.20;;
17818;SDS011;9034;50.284;19.310;2022-12-08T04:39:12;17.45;;;12.52;;
17818;SDS011;9034;50.284;19.310;2022-12-08T04:40:15;16.13;;;12.10;;
17818;SDS011;9034;50.284;19.310;2022-12-08T04:41:19;19.73;;;13.40;;
17818;SDS011;9034;50.284;19.310;2022-12-08T04:42:23;17.75;;;12.32;;
17818;SDS011;9034;50.284;19.310;2022-12-08T04:43:27;17.55;;;12.10;;
17818;SDS011;9034;50.284;19.310;2022-12-08T04:44:31;16.33;;;11.63;;
17818;SDS011;9034;50.284;19.310;2022-12-08T04:45:34;20.20;;;12.65;;
17818;SDS011;9034;50.284;19.310;2022-12-08T04:46:38;15.90;;;12.65;;
17818;SDS011;9034;50.284;19.310;2022-12-08T04:47:44;15.75;;;11.57;;
17818;SDS011;9034;50.284;19.310;2022-12-08T04:48:51;16.33;;;11.85;;
17818;SDS011;9034;50.284;19.310;2022-12-08T04:49:54;14.25;;;11.13;;
17818;SDS011;9034;50.284;19.310;2022-12-08T04:50:57;17.60;;;12.45;;
17818;SDS011;9034;50.284;19.310;2022-12-08T04:52:01;17.67;;;12.85;;
17818;SDS011;9034;50.284;19.310;2022-12-08T04:53:04;16.80;;;11.75;;
17818;SDS011;9034;50.284;19.310;2022-12-08T04:54:09;16.40;;;12.18;;
17818;SDS011;9034;50.284;19.310;2022-12-08T04:55:12;16.98;;;12.05;;
17818;SDS011;9034;50.284;19.310;2022-12-08T04:56:17;17.27;;;12.82;;
17818;SDS011;9034;50.284;19.310;2022-12-08T04:57:20;13.80;;;10.55;;
17818;SDS011;9034;50.284;19.310;2022-12-08T04:58:24;16.00;;;11.95;;
17818;SDS011;9034;50.284;19.310;2022-12-08T04:59:27;17.08;;;12.45;;
17818;SDS011;9034;50.284;19.310;2022-12-08T05:00:31;14.50;;;11.10;;
17818;SDS011;9034;50.284;19.310;2022-12-08T05:01:34;15.18;;;11.80;;
17818;SDS011;9034;50.284;19.310;2022-12-08T05:02:38;18.42;;;12.32;;
17818;SDS011;9034;50.284;19.310;2022-12-08T05:03:41;15.55;;;11.68;;
17818;SDS011;9034;50.284;19.310;2022-12-08T05:04:45;16.33;;;12.38;;
17818;SDS011;9034;50.284;19.310;2022-12-08T05:05:48;14.43;;;11.52;;
17818;SDS011;9034;50.284;19.310;2022-12-08T05:06:52;18.13;;;11.77;;
17818;SDS011;9034;50.284;19.310;2022-12-08T05:07:55;15.63;;;11.65;;
17818;SDS011;9034;50.284;19.310;2022-12-08T05:09:01;15.50;;;11.05;;
17818;SDS011;9034;50.284;19.310;2022-12-08T05:10:06;17.90;;;12.02;;
17818;SDS011;9034;50.284;19.310;2022-12-08T05:11:11;16.50;;;11.30;;
17818;SDS011;9034;50.284;19.310;2022-12-08T05:12:16;15.45;;;11.73;;
17818;SDS011;9034;50.284;19.310;2022-12-08T05:13:19;15.95;;;11.82;;
17818;SDS011;9034;50.284;19.310;2022-12-08T05:14:23;13.38;;;10.65;;
17818;SDS011;9034;50.284;19.310;2022-12-08T05:15:26;16.58;;;11.68;;
17818;SDS011;9034;50.284;19.310;2022-12-08T05:16:30;15.90;;;11.10;;
17818;SDS011;9034;50.284;19.310;2022-12-08T05:17:33;17.35;;;12.77;;
17818;SDS011;9034;50.284;19.310;2022-12-08T05:18:37;20.45;;;13.25;;
17818;SDS011;9034;50.284;19.310;2022-12-08T05:19:40;15.93;;;11.07;;
17818;SDS011;9034;50.284;19.310;2022-12-08T05:20:44;17.02;;;12.32;;
17818;SDS011;9034;50.284;19.310;2022-12-08T05:21:46;17.40;;;12.52;;
17818;SDS011;9034;50.284;19.310;2022-12-08T05:22:50;15.55;;;11.25;;
17818;SDS011;9034;50.284;19.310;2022-12-08T05:23:53;18.13;;;12.70;;
17818;SDS011;9034;50.284;19.310;2022-12-08T05:24:57;17.67;;;12.73;;
17818;SDS011;9034;50.284;19.310;2022-12-08T05:26:02;15.82;;;12.00;;
17818;SDS011;9034;50.284;19.310;2022-12-08T05:27:05;15.48;;;11.80;;
17818;SDS011;9034;50.284;19.310;2022-12-08T05:28:09;16.02;;;11.93;;
17818;SDS011;9034;50.284;19.310;2022-12-08T05:29:35;17.80;;;11.98;;
17818;SDS011;9034;50.284;19.310;2022-12-08T05:30:39;15.93;;;11.75;;
17818;SDS011;9034;50.284;19.310;2022-12-08T05:31:43;17.40;;;12.35;;
17818;SDS011;9034;50.284;19.310;2022-12-08T05:32:47;17.90;;;12.07;;
17818;SDS011;9034;50.284;19.310;2022-12-08T05:33:50;16.85;;;11.93;;
17818;SDS011;9034;50.284;19.310;2022-12-08T05:34:54;18.20;;;12.82;;
17818;SDS011;9034;50.284;19.310;2022-12-08T05:35:57;16.63;;;10.93;;
17818;SDS011;9034;50.284;19.310;2022-12-08T05:37:01;17.30;;;11.73;;
17818;SDS011;9034;50.284;19.310;2022-12-08T05:38:04;19.13;;;12.65;;
17818;SDS011;9034;50.284;19.310;2022-12-08T05:39:10;16.20;;;11.30;;
17818;SDS011;9034;50.284;19.310;2022-12-08T05:40:14;16.63;;;11.38;;
17818;SDS011;9034;50.284;19.310;2022-12-08T05:41:20;17.33;;;11.77;;
17818;SDS011;9034;50.284;19.310;2022-12-08T05:42:23;14.35;;;10.88;;
17818;SDS011;9034;50.284;19.310;2022-12-08T05:43:27;15.60;;;11.30;;
17818;SDS011;9034;50.284;19.310;2022-12-08T05:44:30;15.43;;;11.63;;
17818;SDS011;9034;50.284;19.310;2022-12-08T05:45:34;18.90;;;13.70;;
17818;SDS011;9034;50.284;19.310;2022-12-08T05:46:36;15.88;;;11.30;;
17818;SDS011;9034;50.284;19.310;2022-12-08T05:47:40;16.95;;;11.82;;
17818;SDS011;9034;50.284;19.310;2022-12-08T05:48:44;16.48;;;11.05;;
17818;SDS011;9034;50.284;19.310;2022-12-08T05:49:47;18.15;;;12.43;;
17818;SDS011;9034;50.284;19.310;2022-12-08T05:50:50;15.05;;;11.02;;
17818;SDS011;9034;50.284;19.310;2022-12-08T05:51:54;16.70;;;11.93;;
17818;SDS011;9034;50.284;19.310;2022-12-08T05:52:57;16.85;;;12.07;;
17818;SDS011;9034;50.284;19.310;2022-12-08T05:54:01;19.02;;;12.38;;
17818;SDS011;9034;50.284;19.310;2022-12-08T05:55:04;18.15;;;12.73;;
17818;SDS011;9034;50.284;19.310;2022-12-08T05:56:08;18.63;;;13.32;;
17818;SDS011;9034;50.284;19.310;2022-12-08T05:57:14;20.15;;;13.07;;
17818;SDS011;9034;50.284;19.310;2022-12-08T05:58:17;16.85;;;12.80;;
17818;SDS011;9034;50.284;19.310;2022-12-08T05:59:22;16.63;;;12.52;;
17818;SDS011;9034;50.284;19.310;2022-12-08T06:00:24;17.52;;;12.88;;
17818;SDS011;9034;50.284;19.310;2022-12-08T06:01:29;18.33;;;13.15;;
17818;SDS011;9034;50.284;19.310;2022-12-08T06:02:32;18.98;;;12.70;;
17818;SDS011;9034;50.284;19.310;2022-12-08T06:03:36;17.45;;;12.88;;
17818;SDS011;9034;50.284;19.310;2022-12-08T06:04:39;17.05;;;12.55;;
17818;SDS011;9034;50.284;19.310;2022-12-08T06:05:44;19.70;;;13.35;;
17818;SDS011;9034;50.284;19.310;2022-12-08T06:06:47;20.70;;;14.15;;
17818;SDS011;9034;50.284;19.310;2022-12-08T06:07:51;17.33;;;12.13;;
17818;SDS011;9034;50.284;19.310;2022-12-08T06:08:55;18.27;;;12.10;;
17818;SDS011;9034;50.284;19.310;2022-12-08T06:09:58;16.75;;;12.98;;
17818;SDS011;9034;50.284;19.310;2022-12-08T06:11:02;19.90;;;13.40;;
17818;SDS011;9034;50.284;19.310;2022-12-08T06:12:05;20.52;;;13.32;;
17818;SDS011;9034;50.284;19.310;2022-12-08T06:13:11;16.88;;;13.30;;
17818;SDS011;9034;50.284;19.310;2022-12-08T06:14:13;17.83;;;12.43;;
17818;SDS011;9034;50.284;19.310;2022-12-08T06:15:17;17.23;;;12.23;;
17818;SDS011;9034;50.284;19.310;2022-12-08T06:16:20;22.45;;;13.10;;
17818;SDS011;9034;50.284;19.310;2022-12-08T06:17:24;19.73;;;13.38;;
17818;SDS011;9034;50.284;19.310;2022-12-08T06:18:26;16.98;;;12.63;;
17818;SDS011;9034;50.284;19.310;2022-12-08T06:19:33;17.75;;;12.95;;
17818;SDS011;9034;50.284;19.310;2022-12-08T06:20:36;20.73;;;14.00;;
17818;SDS011;9034;50.284;19.310;2022-12-08T06:21:40;19.67;;;13.75;;
17818;SDS011;9034;50.284;19.310;2022-12-08T06:22:44;22.13;;;15.00;;
17818;SDS011;9034;50.284;19.310;2022-12-08T06:23:47;18.95;;;14.52;;
17818;SDS011;9034;50.284;19.310;2022-12-08T06:24:51;21.35;;;14.25;;
17818;SDS011;9034;50.284;19.310;2022-12-08T06:25:54;20.25;;;14.88;;
17818;SDS011;9034;50.284;19.310;2022-12-08T06:26:57;20.92;;;14.85;;